Time;durP1;ratioP1;P1;durP2;ratioP2;P2;SDS_P1;SDS_P2;PMS_P1;PMS_P2;Temp;Humidity;BMP_temperature;BMP_pressure;BME280_temperature;BME280_humidity;BME280_pressure;Samples;Min_cycle;Max_cycle;Signal;HPM_P1;HPM_P2
2023/04/10 00:01:35;;;;;;;;;;;;;;;;;;6346109;28;19987;-77
2023/04/10 00:04:42;;;;;;;;;;;;;;;;;;6364270;28;20137;-77
2023/04/10 00:07:49;;;;;;;;;;;;;;;;;;6346072;28;20048;-76
2023/04/10 00:10:55;;;;;;;;;;;;;;;;;;6363401;28;19979;-77
2023/04/10 00:14:00;;;;;;;;;;;;;;;;;;6364260;28;20251;-76
2023/04/10 00:17:07;;;;;;;;;;;;;;;;;;6363736;28;19990;-77
2023/04/10 00:20:14;;;;;;;;;;;;;;;;;;6364129;28;19974;-77
2023/04/10 00:23:19;;;;;;;;;;;;;;;;;;6363431;28;20147;-76
2023/04/10 00:26:25;;;;;;;;;;;;;;;;;;6363713;28;20016;-77
2023/04/10 00:29:30;;;;;;;;;;;;;;;;;;6364080;28;19982;-77
2023/04/10 00:32:36;;;;;;;;;;;;;;;;;;6363029;28;19986;-78
2023/04/10 00:35:42;;;;;;;;;;;;;;;;;;6362035;28;19982;-78
2023/04/10 00:38:47;;;;;;;;;;;;;;;;;;6363764;28;20303;-77
2023/04/10 00:41:52;;;;;;;;;;;;;;;;;;6345327;28;20033;-76
2023/04/10 00:44:56;;;;;;;;;;;;;;;;;;6363441;28;19983;-76
2023/04/10 00:48:03;;;;;;;;;;;;;;;;;;6362985;28;19979;-76
2023/04/10 00:51:08;;;;;;;;;;;;;;;;;;6362742;28;20070;-77
2023/04/10 00:54:13;;;;;;;;;;;;;;;;;;6363389;28;19987;-77
2023/04/10 00:57:18;;;;;;;;;;;;;;;;;;6362499;28;19987;-76
2023/04/10 01:00:23;;;;;;;;;;;;;;;;;;6363204;28;19975;-77
2023/04/10 01:03:29;;;;;;;;;;;;;;;;;;6344480;28;19994;-77
2023/04/10 01:06:36;;;;;;;;;;;;;;;;;;6344151;28;19987;-77
2023/04/10 01:09:42;;;;;;;;;;;;;;;;;;6360237;28;19971;-77
2023/04/10 01:12:51;;;;;;;;;;;;;;;;;;6344371;28;19978;-77
2023/04/10 01:15:57;;;;;;;;;;;;;;;;;;6344385;28;19978;-77
2023/04/10 01:19:05;;;;;;;;;;;;;;;;;;6344381;28;20042;-78
2023/04/10 01:22:12;;;;;;;;;;;;;;;;;;6344427;28;19987;-77
2023/04/10 01:25:28;;;;;;;;;;;;;;;;;;6344397;28;19975;-77
2023/04/10 01:28:51;;;;;;;;;;;;;;;;;;6333774;28;19978;-77
2023/04/10 01:31:58;;;;;;;;;;;;;;;;;;6361349;28;19982;-77
2023/04/10 01:35:04;;;;;;;;;;;;;;;;;;6343958;28;19974;-76
2023/04/10 01:38:11;;;;;;;;;;;;;;;;;;6343858;28;19979;-77
2023/04/10 01:41:16;;;;;;;;;;;;;;;;;;6343697;28;19986;-77
2023/04/10 01:44:21;;;;;;;;;;;;;;;;;;6344257;28;19974;-77
2023/04/10 01:47:28;;;;;;;;;;;;;;;;;;6361498;28;19986;-78
2023/04/10 01:50:34;;;;;;;;;;;;;;;;;;6343666;28;19987;-77
2023/04/10 01:53:39;;;;;;;;;;;;;;;;;;6343026;28;19983;-79
2023/04/10 01:56:44;;;;;;;;;;;;;;;;;;6343925;28;19986;-77
2023/04/10 01:59:51;;;;;;;;;;;;;;;;;;6345578;28;19983;-77
2023/04/10 02:02:58;;;;;;;;;;;;;;;;;;6346024;28;19994;-76
2023/04/10 02:06:07;;;;;;;;;;;;;;;;;;6362373;28;19975;-77
2023/04/10 02:09:12;;;;;;;;;;;;;;;;;;6345684;28;19991;-76
2023/04/10 02:12:18;;;;;;;;;;;;;;;;;;6347430;28;19970;-77
2023/04/10 02:15:25;;;;;;;;;;;;;;;;;;6361279;28;19987;-77
2023/04/10 02:18:31;;;;;;;;;;;;;;;;;;6342811;28;19979;-76
2023/04/10 02:21:38;;;;;;;;;;;;;;;;;;6342490;28;19999;-76
2023/04/10 02:24:43;;;;;;;;;;;;;;;;;;6361001;28;20085;-77
2023/04/10 02:27:48;;;;;;;;;;;;;;;;;;6360668;28;20164;-77
2023/04/10 02:30:53;;;;;;;;;;;;;;;;;;6342603;28;20140;-78
2023/04/10 02:33:59;;;;;;;;;;;;;;;;;;6360846;28;19990;-76
2023/04/10 02:37:04;;;;;;;;;;;;;;;;;;6360467;28;19979;-77
2023/04/10 02:40:10;;;;;;;;;;;;;;;;;;6360676;28;20148;-76
2023/04/10 02:43:24;;;;;;;;;;;;;;;;;;6342374;28;19988;-77
2023/04/10 02:46:29;;;;;;;;;;;;;;;;;;6341708;28;19978;-76
2023/04/10 02:49:36;;;;;;;;;;;;;;;;;;6342851;28;19975;-77
2023/04/10 02:52:48;;;;;;;;;;;;;;;;;;6341987;28;19987;-77
2023/04/10 02:55:53;;;;;;;;;;;;;;;;;;6326635;28;19996;-76
2023/04/10 02:58:58;;;;;;;;;;;;;;;;;;6343848;28;19986;-77
2023/04/10 03:02:03;;;;;;;;;;;;;;;;;;6339640;28;19978;-77
2023/04/10 03:05:13;;;;;;;;;;;;;;;;;;6339063;28;19976;-78
2023/04/10 03:08:18;;;;;;;;;;;;;;;;;;6333202;28;19979;-77
2023/04/10 03:11:23;;;;;;;;;;;;;;;;;;6341824;28;20254;-77
2023/04/10 03:14:28;;;;;;;;;;;;;;;;;;6341843;28;19979;-77
2023/04/10 03:17:33;;;;;;;;;;;;;;;;;;6360270;28;19983;-77
2023/04/10 03:20:39;;;;;;;;;;;;;;;;;;6358924;28;19979;-76
2023/04/10 03:23:48;;;;;;;;;;;;;;;;;;6359178;28;19974;-77
2023/04/10 03:26:53;;;;;;;;;;;;;;;;;;6341745;28;19986;-78
2023/04/10 03:29:58;;;;;;;;;;;;;;;;;;6341735;28;19986;-77
2023/04/10 03:33:03;;;;;;;;;;;;;;;;;;6359166;28;19991;-78
2023/04/10 03:36:10;;;;;;;;;;;;;;;;;;6336106;28;20260;-78
2023/04/10 03:39:15;;;;;;;;;;;;;;;;;;6334054;28;20232;-77
2023/04/10 03:42:20;;;;;;;;;;;;;;;;;;6333623;28;20055;-78
2023/04/10 03:45:25;;;;;;;;;;;;;;;;;;6332851;28;20243;-76
2023/04/10 03:48:30;;;;;;;;;;;;;;;;;;6334222;28;20011;-77
2023/04/10 03:51:37;;;;;;;;;;;;;;;;;;6334631;28;19980;-78
2023/04/10 03:54:42;;;;;;;;;;;;;;;;;;6333463;28;19979;-77
2023/04/10 03:57:59;;;;;;;;;;;;;;;;;;6332894;28;19979;-76
2023/04/10 04:01:05;;;;;;;;;;;;;;;;;;6333143;28;19994;-77
2023/04/10 04:04:17;;;;;;;;;;;;;;;;;;6339921;28;20163;-76
2023/04/10 04:07:24;;;;;;;;;;;;;;;;;;6359631;28;19978;-76
2023/04/10 04:10:37;;;;;;;;;;;;;;;;;;6341284;28;19987;-77
2023/04/10 04:13:59;;;;;;;;;;;;;;;;;;6341184;28;19979;-77
2023/04/10 04:17:24;;;;;;;;;;;;;;;;;;6341553;28;20161;-76
2023/04/10 04:20:41;;;;;;;;;;;;;;;;;;6358922;28;19982;-77
2023/04/10 04:23:54;;;;;;;;;;;;;;;;;;6345606;28;20156;-77
2023/04/10 04:27:08;;;;;;;;;;;;;;;;;;6363760;28;20271;-76
2023/04/10 04:30:39;;;;;;;;;;;;;;;;;;6360822;28;19974;-77
2023/04/10 04:34:12;;;;;;;;;;;;;;;;;;6345483;28;20140;-77
2023/04/10 04:37:36;;;;;;;;;;;;;;;;;;6363671;28;19983;-76
2023/04/10 04:41:01;;;;;;;;;;;;;;;;;;6362726;28;19982;-77
2023/04/10 04:44:21;;;;;;;;;;;;;;;;;;6363233;28;19978;-77
2023/04/10 04:47:37;;;;;;;;;;;;;;;;;;6344931;28;20275;-75
2023/04/10 04:50:54;;;;;;;;;;;;;;;;;;6344580;28;20002;-76
2023/04/10 04:54:34;;;;;;;;;;;;;;;;;;6346250;28;19986;-78
2023/04/10 04:57:55;;;;;;;;;;;;;;;;;;6344640;28;19978;-78
2023/04/10 05:01:22;;;;;;;;;;;;;;;;;;6362635;28;20002;-77
2023/04/10 05:04:50;;;;;;;;;;;;;;;;;;6356184;28;19971;-77
2023/04/10 05:08:14;;;;;;;;;;;;;;;;;;6362712;28;20005;-78
2023/04/10 05:11:32;;;;;;;;;;;;;;;;;;6344741;28;20255;-77
2023/04/10 05:15:13;;;;;;;;;;;;;;;;;;6343328;28;20271;-77
2023/04/10 05:18:25;;;;;;;;;;;;;;;;;;6344194;28;20204;-77
2023/04/10 05:21:50;;;;;;;;;;;;;;;;;;6348579;28;20154;-77
2023/04/10 05:25:34;;;;;;;;;;;;;;;;;;6309075;28;19988;-77
2023/04/10 05:28:54;;;;;;;;;;;;;;;;;;6295569;28;19979;-77
2023/04/10 05:32:07;;;;;;;;;;;;;;;;;;6361495;28;20042;-77
2023/04/10 05:35:21;;;;;;;;;;;;;;;;;;6343620;28;20002;-77
2023/04/10 05:38:52;;;;;;;;;;;;;;;;;;6358443;28;20151;-77
2023/04/10 05:42:12;;;;;;;;;;;;;;;;;;6343944;28;19982;-77
2023/04/10 05:45:27;;;;;;;;;;;;;;;;;;6343362;28;20004;-77
2023/04/10 05:48:57;;;;;;;;;;;;;;;;;;6343336;28;19983;-77
2023/04/10 05:52:31;;;;;;;;;;;;;;;;;;6352203;28;19995;-77
2023/04/10 05:56:00;;;;;;;;;;;;;;;;;;6331753;28;19982;-77
2023/04/10 05:59:25;;;;;;;;;;;;;;;;;;6329668;28;20141;-77
2023/04/10 06:02:37;;;;;;;6.67;5.47;;;;;;;;;;6342111;28;20105;-77
2023/04/10 06:05:45;;;;;;;6.37;5.40;;;;;;;;;;6333582;28;20472;-77
2023/04/10 06:08:51;;;;;;;5.93;5.47;;;;;;;;;;6333670;28;20292;-77
2023/04/10 06:11:56;;;;;;;5.80;5.30;;;;;;;;;;6334389;28;20308;-77
2023/04/10 06:15:03;;;;;;;7.40;4.70;;;;;;;;;;6335225;28;20547;-77
2023/04/10 06:18:12;;;;;;;5.80;5.30;;;;;;;;;;6337008;28;20285;-76
2023/04/10 06:21:19;;;;;;;9.10;5.90;;;;;;;;;;6335930;28;20294;-76
2023/04/10 06:24:24;;;;;;;10.40;5.33;;;;;;;;;;6333321;28;20302;-76
2023/04/10 06:27:32;;;;;;;5.40;5.00;;;;;;;;;;6333556;28;20378;-76
2023/04/10 06:30:37;;;;;;;6.73;5.20;;;;;;;;;;6333124;28;20305;-76
2023/04/10 06:33:44;;;;;;;7.40;5.50;;;;;;;;;;6334190;28;20290;-76
2023/04/10 06:36:51;;;;;;;8.93;5.23;;;;;;;;;;6333208;28;20299;-76
2023/04/10 06:40:04;;;;;;;5.40;4.90;;;;;;;;;;6332728;28;20301;-76
2023/04/10 06:43:10;;;;;;;7.20;5.43;;;;;;;;;;6332700;28;20308;-76
2023/04/10 06:46:16;;;;;;;5.93;5.00;;;;;;;;;;6333657;28;20293;-75
2023/04/10 06:49:21;;;;;;;9.80;5.23;;;;;;;;;;6334257;28;20304;-76
2023/04/10 06:52:28;;;;;;;6.57;5.57;;;;;;;;;;6334738;28;20301;-76
2023/04/10 06:55:36;;;;;;;5.67;5.23;;;;;;;;;;6334522;28;20604;-75
2023/04/10 06:58:41;;;;;;;5.07;4.60;;;;;;;;;;6334223;28;20287;-75
2023/04/10 07:01:46;;;;;;;5.97;3.93;;;;;;;;;;6334217;28;20292;-76
2023/04/10 07:04:52;;;;;;;5.87;4.90;;;;;;;;;;6345661;28;20302;-76
2023/04/10 07:07:58;;;;;;;5.83;4.60;;;;;;;;;;6359268;28;20289;-76
2023/04/10 07:11:04;;;;;;;6.23;4.27;;;;;;;;;;6346683;28;20296;-76
2023/04/10 07:14:11;;;;;;;9.57;4.13;;;;;;;;;;6359217;28;20298;-76
2023/04/10 07:17:16;;;;;;;9.17;4.60;;;;;;;;;;6359778;28;20289;-76
2023/04/10 07:20:21;;;;;;;6.57;4.17;;;;;;;;;;6358840;28;20316;-76
2023/04/10 07:23:28;;;;;;;6.13;4.40;;;;;;;;;;6358896;28;20296;-76
2023/04/10 07:26:33;;;;;;;5.40;4.63;;;;;;;;;;6359936;28;20592;-76
2023/04/10 07:29:38;;;;;;;7.33;3.00;;;;;;;;;;6358432;28;20318;-76
2023/04/10 07:32:45;;;;;;;2.83;2.73;;;;;;;;;;6359908;28;20280;-76
2023/04/10 07:35:51;;;;;;;4.70;3.30;;;;;;;;;;6359045;28;20351;-77
2023/04/10 07:38:57;;;;;;;3.97;3.63;;;;;;;;;;6340354;28;20308;-75
2023/04/10 07:42:02;;;;;;;2.63;2.53;;;;;;;;;;6344353;28;20297;-77
2023/04/10 07:45:09;;;;;;;2.53;2.43;;;;;;;;;;6332604;28;20312;-78
2023/04/10 07:48:15;;;;;;;3.33;2.73;;;;;;;;;;6333072;28;20297;-76
2023/04/10 07:51:20;;;;;;;3.10;2.50;;;;;;;;;;6316500;28;20294;-75
2023/04/10 07:54:26;;;;;;;3.80;2.67;;;;;;;;;;6247640;28;20525;-75
2023/04/10 07:57:32;;;;;;;2.50;2.40;;;;;;;;;;6287709;28;20293;-75
2023/04/10 08:00:37;;;;;;;7.53;2.53;;;;;;;;;;6287855;28;20369;-74
2023/04/10 08:03:43;;;;;;;10.23;3.03;;;;;;;;;;6287111;28;20302;-75
2023/04/10 08:06:49;;;;;;;2.77;2.60;;;;;;;;;;6287919;28;20295;-74
2023/04/10 08:09:55;;;;;;;3.93;2.80;;;;;;;;;;6296123;28;20310;-75
2023/04/10 08:13:01;;;;;;;4.53;2.40;;;;;;;;;;6295843;28;20294;-76
2023/04/10 08:16:07;;;;;;;3.57;2.80;;;;;;;;;;6287982;28;20296;-73
2023/04/10 08:19:12;;;;;;;3.53;2.80;;;;;;;;;;6287741;28;20303;-73
2023/04/10 08:22:17;;;;;;;3.93;2.50;;;;;;;;;;6287474;28;20294;-73
2023/04/10 08:25:23;;;;;;;2.87;2.67;;;;;;;;;;6287741;28;20291;-73
2023/04/10 08:28:28;;;;;;;3.60;2.63;;;;;;;;;;6287507;28;20298;-73
2023/04/10 08:31:34;;;;;;;3.07;2.20;;;;;;;;;;6287794;28;20291;-72
2023/04/10 08:34:39;;;;;;;3.63;2.63;;;;;;;;;;6287115;28;20300;-72
2023/04/10 08:37:45;;;;;;;2.85;2.65;;;;;;;;;;6287732;28;20302;-72
2023/04/10 08:40:58;;;;;;;7.70;2.70;;;;;;;;;;6286438;28;20294;-73
2023/04/10 08:44:04;;;;;;;6.73;2.77;;;;;;;;;;6287787;28;20302;-74
2023/04/10 08:47:14;;;;;;;3.50;2.57;;;;;;;;;;6288384;28;20295;-73
2023/04/10 08:50:20;;;;;;;1.67;1.60;;;;;;;;;;6287335;28;20291;-74
2023/04/10 08:53:25;;;;;;;2.88;1.45;;;;;;;;;;6287055;28;20294;-73
2023/04/10 08:56:33;;;;;;;2.07;1.80;;;;;;;;;;6287681;28;20291;-74
2023/04/10 08:59:38;;;;;;;4.78;1.67;;;;;;;;;;6285235;28;20291;-75
2023/04/10 09:02:43;;;;;;;1.73;1.63;;;;;;;;;;6287420;28;20290;-74
2023/04/10 09:05:49;;;;;;;2.67;1.27;;;;;;;;;;6286325;28;20311;-77
2023/04/10 09:08:54;;;;;;;1.40;1.40;;;;;;;;;;6286022;28;20373;-72
2023/04/10 09:12:03;;;;;;;3.85;1.60;;;;;;;;;;6306900;28;20343;-73
2023/04/10 09:15:10;;;;;;;2.30;1.27;;;;;;;;;;6311236;28;20299;-75
2023/04/10 09:21:37;;;;;;;2.53;1.08;;;;;;;;;;6311736;28;20486;-73
2023/04/10 09:24:44;;;;;;;8.30;1.40;;;;;;;;;;6311209;28;20302;-73
2023/04/10 09:28:01;;;;;;;5.40;1.65;;;;;;;;;;6311483;28;20610;-72
2023/04/10 09:31:29;;;;;;;5.20;1.30;;;;;;;;;;6310577;28;20302;-74
2023/04/10 09:34:34;;;;;;;2.17;1.83;;;;;;;;;;6310946;28;20294;-73
2023/04/10 09:37:41;;;;;;;5.20;2.00;;;;;;;;;;6312664;28;20289;-73
2023/04/10 09:40:47;;;;;;;4.53;1.75;;;;;;;;;;6311031;28;20294;-74
2023/04/10 09:44:06;;;;;;;2.42;1.88;;;;;;;;;;6310062;28;20302;-73
2023/04/10 09:47:20;;;;;;;2.25;1.30;;;;;;;;;;6309627;28;20471;-74
2023/04/10 09:50:35;;;;;;;1.80;1.38;;;;;;;;;;6310387;28;20369;-74
2023/04/10 09:53:50;;;;;;;1.35;1.33;;;;;;;;;;6309300;28;20311;-73
2023/04/10 09:56:55;;;;;;;3.85;1.27;;;;;;;;;;6310892;28;20266;-74
2023/04/10 10:00:03;;;;;;;1.48;1.17;;;;;;;;;;6308774;28;20298;-73
2023/04/10 10:03:16;;;;;;;1.67;1.40;;;;;;;;;;6310308;28;20306;-74
2023/04/10 10:06:22;;;;;;;1.58;1.20;;;;;;;;;;6310319;28;20298;-72
2023/04/10 10:09:28;;;;;;;3.75;1.40;;;;;;;;;;6309626;28;20325;-73
2023/04/10 10:12:40;;;;;;;1.77;1.40;;;;;;;;;;6298046;28;20566;-73
2023/04/10 10:15:52;;;;;;;1.35;1.33;;;;;;;;;;6309799;28;20294;-73
2023/04/10 10:19:05;;;;;;;3.05;1.20;;;;;;;;;;6309592;28;20310;-73
2023/04/10 10:22:10;;;;;;;2.28;1.35;;;;;;;;;;6309648;28;20294;-73
2023/04/10 10:25:16;;;;;;;3.38;1.15;;;;;;;;;;6309139;28;20294;-74
2023/04/10 10:28:21;;;;;;;1.55;1.00;;;;;;;;;;6309909;28;20286;-73
2023/04/10 10:31:31;;;;;;;4.10;1.35;;;;;;;;;;6310045;28;20298;-74
2023/04/10 10:34:37;;;;;;;1.00;1.00;;;;;;;;;;6308175;28;20487;-74
2023/04/10 10:37:44;;;;;;;4.60;1.20;;;;;;;;;;6309522;28;20290;-73
2023/04/10 10:40:54;;;;;;;1.25;1.25;;;;;;;;;;6308991;28;20297;-74
2023/04/10 10:44:07;;;;;;;1.13;1.13;;;;;;;;;;6309010;28;20500;-74
2023/04/10 10:47:18;;;;;;;2.45;1.60;;;;;;;;;;6309492;28;20286;-73
2023/04/10 10:50:24;;;;;;;3.17;1.70;;;;;;;;;;6308659;28;20294;-73
2023/04/10 10:53:37;;;;;;;1.95;1.83;;;;;;;;;;6308919;28;20310;-74
2023/04/10 10:56:43;;;;;;;1.33;1.27;;;;;;;;;;6307353;28;20270;-74
2023/04/10 10:59:57;;;;;;;1.23;1.20;;;;;;;;;;6308941;28;20543;-75
2023/04/10 11:03:29;;;;;;;1.92;1.00;;;;;;;;;;6308573;28;20298;-76
2023/04/10 11:06:51;;;;;;;2.83;1.30;;;;;;;;;;6284838;28;20570;-76
2023/04/10 11:09:57;;;;;;;1.10;1.10;;;;;;;;;;6283080;28;20287;-75
2023/04/10 11:13:18;;;;;;;3.22;1.85;;;;;;;;;;6284133;28;20295;-75
2023/04/10 11:16:25;;;;;;;3.05;1.30;;;;;;;;;;6284317;28;20416;-75
2023/04/10 11:19:30;;;;;;;1.58;1.23;;;;;;;;;;6283952;28;20311;-73
2023/04/10 11:23:10;;;;;;;1.20;1.20;;;;;;;;;;6284338;28;20315;-73
2023/04/10 11:26:15;;;;;;;3.47;1.33;;;;;;;;;;6283320;28;20470;-74
2023/04/10 11:29:35;;;;;;;1.52;1.35;;;;;;;;;;6283257;28;20294;-74
2023/04/10 11:32:42;;;;;;;2.55;1.30;;;;;;;;;;6288265;28;20267;-75
2023/04/10 11:35:47;;;;;;;1.70;1.60;;;;;;;;;;6288603;28;20295;-75
2023/04/10 11:38:57;;;;;;;1.67;1.10;;;;;;;;;;6287856;28;20335;-75
2023/04/10 11:42:04;;;;;;;1.08;1.08;;;;;;;;;;6289247;28;20290;-75
2023/04/10 11:45:27;;;;;;;1.67;1.33;;;;;;;;;;6288334;28;20592;-74
2023/04/10 11:48:33;;;;;;;1.75;1.30;;;;;;;;;;6285757;28;20506;-74
2023/04/10 11:51:39;;;;;;;1.20;1.10;;;;;;;;;;6288967;28;20318;-73
2023/04/10 11:54:50;;;;;;;1.30;1.30;;;;;;;;;;6287978;28;20602;-73
2023/04/10 11:57:55;;;;;;;1.38;1.27;;;;;;;;;;6288462;28;20291;-74
2023/04/10 12:01:02;;;;;;;1.20;1.02;;;;;;;;;;6288712;28;20290;-75
2023/04/10 12:04:15;;;;;;;1.20;1.20;;;;;;;;;;6288612;28;20302;-75
2023/04/10 12:07:26;;;;;;;2.03;1.40;;;;;;;;;;6289076;28;20595;-74
2023/04/10 12:10:45;;;;;;;1.85;1.30;;;;;;;;;;6295831;28;20294;-73
2023/04/10 12:13:54;;;;;;;3.38;1.45;;;;;;;;;;6313113;28;20294;-73
2023/04/10 12:16:59;;;;;;;1.27;1.20;;;;;;;;;;6312864;28;20324;-72
2023/04/10 12:20:05;;;;;;;1.20;1.20;;;;;;;;;;6312393;28;20297;-74
2023/04/10 12:23:11;;;;;;;5.80;1.70;;;;;;;;;;6301751;28;20282;-73
2023/04/10 12:26:18;;;;;;;1.55;1.40;;;;;;;;;;6287954;28;20611;-75
2023/04/10 12:29:27;;;;;;;1.40;1.38;;;;;;;;;;6287853;28;20474;-75
2023/04/10 12:32:33;;;;;;;1.55;1.48;;;;;;;;;;6287112;28;20295;-75
2023/04/10 12:35:38;;;;;;;2.63;1.48;;;;;;;;;;6286589;28;20299;-75
2023/04/10 12:38:44;;;;;;;1.30;1.30;;;;;;;;;;6287305;28;20295;-74
2023/04/10 12:41:51;;;;;;;2.33;1.45;;;;;;;;;;6287679;28;20268;-75
2023/04/10 12:44:57;;;;;;;1.40;1.40;;;;;;;;;;6287287;28;20314;-74
2023/04/10 12:48:02;;;;;;;1.45;1.45;;;;;;;;;;6287027;28;20283;-74
2023/04/10 12:51:08;;;;;;;2.03;1.40;;;;;;;;;;6287586;28;20294;-75
2023/04/10 12:54:26;;;;;;;1.20;1.20;;;;;;;;;;6286990;28;20571;-75
2023/04/10 12:57:33;;;;;;;1.50;1.40;;;;;;;;;;6301173;28;20290;-74
2023/04/10 13:00:38;;;;;;;2.97;1.27;;;;;;;;;;6312071;28;20290;-74
2023/04/10 13:03:45;;;;;;;1.67;1.58;;;;;;;;;;6311470;28;20582;-75
2023/04/10 13:06:52;;;;;;;1.10;1.10;;;;;;;;;;6312354;28;20298;-75
2023/04/10 13:09:57;;;;;;;1.20;1.10;;;;;;;;;;6312068;28;20290;-75
2023/04/10 13:13:05;;;;;;;5.20;1.10;;;;;;;;;;6311736;28;20291;-73
2023/04/10 13:16:13;;;;;;;1.38;1.27;;;;;;;;;;6311903;28;20685;-74
2023/04/10 13:19:18;;;;;;;2.85;1.60;;;;;;;;;;6311400;28;20483;-74
2023/04/10 13:22:23;;;;;;;1.30;1.30;;;;;;;;;;6311803;28;20291;-74
2023/04/10 13:25:28;;;;;;;5.53;1.25;;;;;;;;;;6311035;28;20299;-74
2023/04/10 13:28:35;;;;;;;3.35;1.10;;;;;;;;;;6311216;28;20306;-74
2023/04/10 13:31:40;;;;;;;0.90;0.90;;;;;;;;;;6311890;28;20462;-75
2023/04/10 13:34:45;;;;;;;1.23;1.13;;;;;;;;;;6310933;28;20314;-74
2023/04/10 13:37:53;;;;;;;4.00;1.40;;;;;;;;;;6311714;28;20287;-74
2023/04/10 13:40:58;;;;;;;1.35;1.00;;;;;;;;;;6310712;28;20290;-74
2023/04/10 13:44:04;;;;;;;1.13;1.00;;;;;;;;;;6311013;28;20290;-75
2023/04/10 13:47:09;;;;;;;1.55;0.90;;;;;;;;;;6311263;28;20306;-75
2023/04/10 13:50:14;;;;;;;1.02;1.02;;;;;;;;;;6310801;28;20286;-74
2023/04/10 13:53:20;;;;;;;1.20;1.10;;;;;;;;;;6307834;28;20294;-72
2023/04/10 13:56:25;;;;;;;0.90;0.90;;;;;;;;;;6307789;28;20287;-74
2023/04/10 13:59:31;;;;;;;3.67;0.93;;;;;;;;;;6285999;28;20638;-74
2023/04/10 14:02:37;;;;;;;1.17;1.10;;;;;;;;;;6285122;28;20276;-76
2023/04/10 14:05:42;;;;;;;3.10;1.10;;;;;;;;;;6285127;28;20310;-73
2023/04/10 14:08:47;;;;;;;1.23;0.95;;;;;;;;;;6285092;28;20283;-72
2023/04/10 14:11:53;;;;;;;1.20;1.10;;;;;;;;;;6304750;28;20449;-74
2023/04/10 14:15:00;;;;;;;2.72;1.20;;;;;;;;;;6310070;28;20305;-73
2023/04/10 14:18:05;;;;;;;0.90;0.80;;;;;;;;;;6310131;28;20307;-74
2023/04/10 14:21:11;;;;;;;1.95;1.00;;;;;;;;;;6310530;28;20290;-73
2023/04/10 14:24:16;;;;;;;3.78;0.90;;;;;;;;;;6310004;28;20298;-75
2023/04/10 14:27:21;;;;;;;0.90;0.90;;;;;;;;;;6310560;28;20294;-75
2023/04/10 14:30:29;;;;;;;3.03;1.30;;;;;;;;;;6308863;28;20307;-74
2023/04/10 14:33:35;;;;;;;2.30;1.17;;;;;;;;;;6309261;28;20286;-74
2023/04/10 14:36:40;;;;;;;0.90;0.90;;;;;;;;;;6309791;28;20294;-74
2023/04/10 14:39:45;;;;;;;0.90;0.90;;;;;;;;;;6309766;28;20286;-74
2023/04/10 14:42:52;;;;;;;6.45;1.33;;;;;;;;;;6310258;28;20298;-75
2023/04/10 14:45:58;;;;;;;1.52;1.15;;;;;;;;;;6308851;28;20302;-74
2023/04/10 14:49:03;;;;;;;1.30;1.20;;;;;;;;;;6309220;28;20294;-77
2023/04/10 14:52:09;;;;;;;1.90;1.45;;;;;;;;;;6309632;28;20294;-74
2023/04/10 14:55:14;;;;;;;1.25;1.25;;;;;;;;;;6309513;28;20566;-74
2023/04/10 14:58:19;;;;;;;4.30;1.10;;;;;;;;;;6309208;28;20577;-73
2023/04/10 15:01:25;;;;;;;3.60;1.20;;;;;;;;;;6309970;28;20435;-72
2023/04/10 15:04:30;;;;;;;1.08;1.08;;;;;;;;;;6307281;28;20302;-74
2023/04/10 15:07:36;;;;;;;1.63;1.30;;;;;;;;;;6309816;28;20290;-74
2023/04/10 15:10:41;;;;;;;2.92;1.30;;;;;;;;;;6299607;28;20302;-74
2023/04/10 15:13:46;;;;;;;1.95;1.27;;;;;;;;;;6284293;28;20294;-74
2023/04/10 15:16:53;;;;;;;1.58;1.40;;;;;;;;;;6283963;28;20292;-74
2023/04/10 15:19:58;;;;;;;5.43;1.50;;;;;;;;;;6284277;28;20307;-72
2023/04/10 15:23:03;;;;;;;1.30;1.30;;;;;;;;;;6284211;28;20287;-72
2023/04/10 15:26:12;;;;;;;2.08;1.63;;;;;;;;;;6283172;28;20583;-72
2023/04/10 15:29:17;;;;;;;1.63;1.52;;;;;;;;;;6284183;28;20295;-72
2023/04/10 15:32:24;;;;;;;4.57;1.80;;;;;;;;;;6284397;28;20567;-72
2023/04/10 15:35:33;;;;;;;1.77;1.67;;;;;;;;;;6283596;28;20606;-73
2023/04/10 15:38:38;;;;;;;1.98;1.40;;;;;;;;;;6283042;28;20311;-73
2023/04/10 15:41:43;;;;;;;1.45;1.35;;;;;;;;;;6284217;28;20275;-73
2023/04/10 15:44:48;;;;;;;2.90;1.63;;;;;;;;;;6283900;28;20311;-75
2023/04/10 15:47:54;;;;;;;1.42;1.42;;;;;;;;;;6284046;28;20291;-73
2023/04/10 15:51:03;;;;;;;1.92;1.73;;;;;;;;;;6283124;28;20303;-73
2023/04/10 15:54:09;;;;;;;2.75;1.75;;;;;;;;;;6283758;28;20302;-71
2023/04/10 15:57:14;;;;;;;3.10;1.60;;;;;;;;;;6293872;28;20298;-71
2023/04/10 16:00:20;;;;;;;4.43;1.80;;;;;;;;;;6308362;28;20421;-72
2023/04/10 16:03:27;;;;;;;1.98;1.88;;;;;;;;;;6308085;28;20286;-74
2023/04/10 16:06:34;;;;;;;1.83;1.83;;;;;;;;;;6308770;28;20511;-72
2023/04/10 16:09:39;;;;;;;2.33;2.22;;;;;;;;;;6307363;28;20476;-72
2023/04/10 16:12:44;;;;;;;1.73;1.50;;;;;;;;;;6283919;28;20607;-73
2023/04/10 16:15:50;;;;;;;3.80;1.67;;;;;;;;;;6283652;28;20451;-75
2023/04/10 16:18:57;;;;;;;1.70;1.60;;;;;;;;;;6288100;28;20598;-73
2023/04/10 16:22:05;;;;;;;5.90;1.88;;;;;;;;;;6288834;28;20287;-74
2023/04/10 16:25:11;;;;;;;1.90;1.67;;;;;;;;;;6288060;28;20299;-75
2023/04/10 16:28:16;;;;;;;3.83;1.90;;;;;;;;;;6287516;28;20295;-73
2023/04/10 16:31:21;;;;;;;2.03;1.92;;;;;;;;;;6288330;28;20287;-73
2023/04/10 16:34:28;;;;;;;1.70;1.60;;;;;;;;;;6287725;28;20479;-73
2023/04/10 16:37:33;;;;;;;1.83;1.83;;;;;;;;;;6288134;28;20590;-73
2023/04/10 16:40:39;;;;;;;1.75;1.67;;;;;;;;;;6287818;28;20291;-73
2023/04/10 16:43:44;;;;;;;2.25;1.75;;;;;;;;;;6287512;28;20286;-73
2023/04/10 16:46:49;;;;;;;2.03;1.85;;;;;;;;;;6287787;28;20295;-74
2023/04/10 16:49:56;;;;;;;3.65;1.80;;;;;;;;;;6287386;28;20559;-74
2023/04/10 16:53:01;;;;;;;3.05;2.10;;;;;;;;;;6287003;28;20291;-73
2023/04/10 16:56:06;;;;;;;7.80;2.20;;;;;;;;;;6288618;28;20291;-74
2023/04/10 16:59:11;;;;;;;1.70;1.70;;;;;;;;;;6312011;28;20301;-74
2023/04/10 17:02:16;;;;;;;4.03;1.92;;;;;;;;;;6312743;28;20291;-74
2023/04/10 17:05:23;;;;;;;3.00;1.97;;;;;;;;;;6311910;28;20310;-74
2023/04/10 17:08:28;;;;;;;2.47;2.13;;;;;;;;;;6311609;28;20302;-74
2023/04/10 17:11:33;;;;;;;2.20;2.10;;;;;;;;;;6310964;28;20317;-74
2023/04/10 17:14:38;;;;;;;2.07;2.07;;;;;;;;;;6310479;28;20290;-75
2023/04/10 17:17:43;;;;;;;2.60;2.50;;;;;;;;;;6312050;28;20540;-75
2023/04/10 17:20:50;;;;;;;2.90;2.70;;;;;;;;;;6311413;28;20314;-75
2023/04/10 17:23:55;;;;;;;3.47;2.30;;;;;;;;;;6311501;28;20293;-73
2023/04/10 17:27:00;;;;;;;4.70;2.33;;;;;;;;;;6311827;28;20294;-74
2023/04/10 17:30:10;;;;;;;2.00;2.00;;;;;;;;;;6312778;28;20290;-73
2023/04/10 17:33:15;;;;;;;2.90;2.70;;;;;;;;;;6311634;28;20317;-73
2023/04/10 17:36:22;;;;;;;2.33;2.23;;;;;;;;;;6311599;28;20472;-74
2023/04/10 17:39:27;;;;;;;3.00;2.80;;;;;;;;;;6311277;28;20306;-74
2023/04/10 17:42:32;;;;;;;2.87;2.60;;;;;;;;;;6311188;28;20312;-76
2023/04/10 17:45:38;;;;;;;5.90;2.40;;;;;;;;;;6310596;28;20309;-74
2023/04/10 17:48:43;;;;;;;3.80;2.80;;;;;;;;;;6310287;28;20522;-74
2023/04/10 17:51:50;;;;;;;2.73;2.63;;;;;;;;;;6311237;28;20301;-74
2023/04/10 17:54:55;;;;;;;4.50;3.37;;;;;;;;;;6310974;28;20294;-74
2023/04/10 17:58:00;;;;;;;2.53;2.43;;;;;;;;;;6294468;28;20294;-75
2023/04/10 18:01:06;;;;;;;6.27;3.10;;;;;;;;;;6286555;28;20298;-74
2023/04/10 18:04:11;;;;;;;5.50;3.47;;;;;;;;;;6285534;28;20302;-74
2023/04/10 18:07:18;;;;;;;7.20;3.27;;;;;;;;;;6286757;28;20287;-74
2023/04/10 18:10:24;;;;;;;3.10;2.90;;;;;;;;;;6292170;28;20301;-74
2023/04/10 18:13:29;;;;;;;3.47;3.03;;;;;;;;;;6310221;28;20296;-73
2023/04/10 18:16:34;;;;;;;6.30;2.90;;;;;;;;;;6310844;28;20479;-73
2023/04/10 18:19:39;;;;;;;3.00;2.70;;;;;;;;;;6308452;28;20296;-72
2023/04/10 18:22:47;;;;;;;7.33;2.43;;;;;;;;;;6310833;28;20447;-71
2023/04/10 18:25:53;;;;;;;3.27;3.07;;;;;;;;;;6308400;28;20496;-70
2023/04/10 18:28:58;;;;;;;2.60;2.50;;;;;;;;;;6309696;28;20296;-73
2023/04/10 18:32:06;;;;;;;6.17;3.10;;;;;;;;;;6309923;28;20461;-73
2023/04/10 18:35:11;;;;;;;3.30;3.03;;;;;;;;;;6310065;28;20297;-71
2023/04/10 18:38:18;;;;;;;5.87;2.90;;;;;;;;;;6309274;28;20492;-71
2023/04/10 18:41:23;;;;;;;8.57;2.83;;;;;;;;;;6309473;28;20297;-73
2023/04/10 18:44:28;;;;;;;4.03;3.03;;;;;;;;;;6309959;28;20303;-71
2023/04/10 18:47:35;;;;;;;3.47;3.17;;;;;;;;;;6309860;28;20292;-73
2023/04/10 18:50:45;;;;;;;5.20;2.83;;;;;;;;;;6308703;28;20292;-73
2023/04/10 18:53:52;;;;;;;5.53;2.80;;;;;;;;;;6310202;28;20304;-74
2023/04/10 18:56:57;;;;;;;3.13;3.03;;;;;;;;;;6302378;28;20285;-74
2023/04/10 19:00:05;;;;;;;7.30;2.97;;;;;;;;;;6284723;28;20291;-74
2023/04/10 19:03:10;;;;;;;8.20;3.23;;;;;;;;;;6284650;28;20292;-73
2023/04/10 19:06:16;;;;;;;10.60;5.77;;;;;;;;;;6284550;28;20292;-73
2023/04/10 19:09:23;;;;;;;24.33;9.87;;;;;;;;;;6284681;28;20304;-75
2023/04/10 19:12:28;;;;;;;13.63;5.20;;;;;;;;;;6285299;28;20315;-74
2023/04/10 19:15:33;;;;;;;4.50;3.93;;;;;;;;;;6284535;28;20320;-75
2023/04/10 19:18:38;;;;;;;14.13;5.13;;;;;;;;;;6284525;28;20346;-74
2023/04/10 19:21:43;;;;;;;5.50;3.83;;;;;;;;;;6285059;28;20296;-74
2023/04/10 19:24:50;;;;;;;12.50;3.67;;;;;;;;;;6284460;28;20297;-73
2023/04/10 19:27:55;;;;;;;3.27;3.17;;;;;;;;;;6283970;28;20291;-74
2023/04/10 19:31:00;;;;;;;3.67;3.40;;;;;;;;;;6284739;28;20301;-74
2023/04/10 19:34:08;;;;;;;9.63;3.30;;;;;;;;;;6284352;28;20294;-74
2023/04/10 19:37:13;;;;;;;4.63;3.30;;;;;;;;;;6284665;28;20292;-74